CCGS Tanu — CGBY — position and weather

sailwx.info

Track history (hours):
 
Tides and Currents Weather Stations Pressure Air Temp Water Temp Dewpoint Dewpoint Depression Visibility Wind Speed Wind Dir Waves Ship Positions

CCGS Tanu (Canada)

Ship's website: http://www.ccg-gcc.gc.ca/vessels-navires/details_e.asp?id=M-5

Last reported at 2015-Feb-25 21:32 UTC. Time now 2015-Mar-03 03:04 UTC.
Position N 51°31' W 127°51'.

Length 54.5 m; beam 9.7 m; draft 3.7 m.

Type: SAR. MMSI: 316091000.

Date/timePositionNaut miles runAvg speedWind from/ knotsBaromVisibWave heightAir tempDewpointWater temp
2015-Feb-25 21:32N 51°31' W 127°51'  
2015-Feb-20 00:29N 53°51' W 130°51'1211.1
2015-Feb-19 23:26N 53°60' W 131°03'1011.2
2015-Feb-19 22:32N 54°07' W 131°15'16 7.7
2015-Feb-19 20:30N 54°13' W 130°50'1010.5
2015-Feb-19 19:33N 54°11' W 130°34'7 6.6
2015-Feb-19 18:32N 54°12' W 130°23'0 0.0
2015-Feb-19 17:32N 54°12' W 130°23'1 1.5
2015-Feb-19 16:33N 54°11' W 130°21'9 8.4
2015-Feb-19 15:31N 54°04' W 130°31'0 0.0
2015-Feb-19 14:31N 54°04' W 130°31'0 0.0
2015-Feb-19 13:16N 54°04' W 130°31'0 0.0
2015-Feb-19 12:31N 54°04' W 130°31'2 3.1
2015-Feb-19 12:00N 54°06' W 130°30'2 3.2 290 / 101020.7 7.7 5.9
2015-Feb-19 11:28N 54°04' W 130°31'0 0.0
2015-Feb-19 10:31N 54°04' W 130°31'0 0.0
2015-Feb-19 09:10N 54°04' W 130°31'0 0.0
2015-Feb-19 08:28N 54°04' W 130°31'0 0.0
2015-Feb-19 07:28N 54°04' W 130°31'0 0.0
2015-Feb-19 06:31N 54°04' W 130°31'0 0.0
2015-Feb-19 05:31N 54°04' W 130°31'1 0.9
2015-Feb-19 04:33N 54°05' W 130°31'9 9.6
2015-Feb-19 03:33N 54°13' W 130°21'6 6.4
2015-Feb-19 02:33N 54°19' W 130°20'2 2.1
2015-Feb-19 01:33N 54°20' W 130°17'  
Track history (hours):
 
Tides and Currents Weather Stations Pressure Air Temp Water Temp Dewpoint Dewpoint Depression Visibility Wind Speed Wind Dir Waves Ship Positions

CCGS Tanu (Canada)

Ship's website: http://www.ccg-gcc.gc.ca/vessels-navires/details_e.asp?id=M-5

Last reported at 2015-Feb-25 21:32 UTC. Time now 2015-Mar-03 03:04 UTC.
Position N 51°31' W 127°51'.

Length 54.5 m; beam 9.7 m; draft 3.7 m.

Type: SAR. MMSI: 316091000.

Date/timePositionNaut miles runAvg speedWind from/ knotsBaromVisibWave heightAir tempDewpointWater temp
2015-Feb-25 21:32N 51°31' W 127°51'  
2015-Feb-20 00:29N 53°51' W 130°51'1211.1
2015-Feb-19 23:26N 53°60' W 131°03'1011.2
2015-Feb-19 22:32N 54°07' W 131°15'16 7.7
2015-Feb-19 20:30N 54°13' W 130°50'1010.5
2015-Feb-19 19:33N 54°11' W 130°34'7 6.6
2015-Feb-19 18:32N 54°12' W 130°23'0 0.0
2015-Feb-19 17:32N 54°12' W 130°23'1 1.5
2015-Feb-19 16:33N 54°11' W 130°21'9 8.4
2015-Feb-19 15:31N 54°04' W 130°31'0 0.0
2015-Feb-19 14:31N 54°04' W 130°31'0 0.0
2015-Feb-19 13:16N 54°04' W 130°31'0 0.0
2015-Feb-19 12:31N 54°04' W 130°31'2 3.1
2015-Feb-19 12:00N 54°06' W 130°30'2 3.2 290 / 101020.7 7.7 5.9
2015-Feb-19 11:28N 54°04' W 130°31'0 0.0
2015-Feb-19 10:31N 54°04' W 130°31'0 0.0
2015-Feb-19 09:10N 54°04' W 130°31'0 0.0
2015-Feb-19 08:28N 54°04' W 130°31'0 0.0
2015-Feb-19 07:28N 54°04' W 130°31'0 0.0
2015-Feb-19 06:31N 54°04' W 130°31'0 0.0
2015-Feb-19 05:31N 54°04' W 130°31'1 0.9
2015-Feb-19 04:33N 54°05' W 130°31'9 9.6
2015-Feb-19 03:33N 54°13' W 130°21'6 6.4
2015-Feb-19 02:33N 54°19' W 130°20'2 2.1
2015-Feb-19 01:33N 54°20' W 130°17'  

Dump ship's entire track history